Airfield :







YOU CAN JOIN US ON...

 
LOGIN :

Register | Disclaimer

   EN    FR    IT 

 









Legend :    VFR   Marginal VFR   IFR   Intensive IFR   Very Intensive IFR
Visi :
Ceiling :
>= 8 km
>= 3000ft
5 to 8 km
1000 to 3000 ft
1500m to 5 km
500 to 1000 ft
800 to 1500m
200 to 500 ft
< 800m
< 200 ft
Symbols :   Thunderstorms  Fog  Heavy snow  Heavy precipitations  Wind > 20 kt







- Airport Elevation : 171 ft
- IATA code : KEF


BIKF - Keflavik International

CURRENT METAR :
  • 160200Z 21005KT CAVOK 09/08 Q1016

EXPIRED METARs :
  • 160130Z 20004KT CAVOK 09/08 Q1017
  • 160100Z 20005KT CAVOK 10/09 Q1017
  • 160030Z 19005KT 170V230 CAVOK 09/08 Q1017
  • 160000Z 22006KT CAVOK 10/08 Q1017
  • 152330Z 25006KT CAVOK 11/08 Q1017

TAF TAF BIKF
Valid from the 16 at 03:00 until the 17 at 03:00 UTC


160100Z 1603/1703 22007KT 9999 FEW025 BKN040 TX13/1615Z TN07/1624Z
TEMPO 1603/1615 SCT010 BKN020
PROB40
TEMPO 1603/1612 5000 BR BKN005
No reported NOTAMs for that airfield.



MET'MAP, your aeronautical weather chart ! - Copyright ORBIFLY December 2007 - Disclaimer

ORBIFLY MET'MAP TEAM :

Programming & Development : Alexandra Zaïnal
Concept & Development : Baudouin d'Aumeries
Co-Development & Prog : Marc-Olivier Méhu
Technical & hardware support : Manuel Goepfert

Contact : metmap@orbifly.com




SOURCES & CREDITS :

   NOAA